createdAt,value
2022-11-01T00:00:36.802Z,10.30
2022-11-01T00:01:36.846Z,10.00
2022-11-01T00:02:36.818Z,11.60
2022-11-01T00:03:36.771Z,8.50
2022-11-01T00:04:36.770Z,8.70
2022-11-01T00:05:36.752Z,9.70
2022-11-01T00:06:36.743Z,10.20
2022-11-01T00:07:36.771Z,8.80
2022-11-01T00:08:36.720Z,10.20
2022-11-01T00:09:36.716Z,10.80
2022-11-01T00:10:36.692Z,9.00
2022-11-01T00:11:36.728Z,10.70
2022-11-01T00:12:36.709Z,10.40
2022-11-01T00:13:36.672Z,9.40
2022-11-01T00:14:36.653Z,10.30
2022-11-01T00:15:36.651Z,11.10
2022-11-01T00:16:36.631Z,9.70
2022-11-01T00:17:36.653Z,12.60
2022-11-01T00:18:36.646Z,9.40
2022-11-01T00:19:36.632Z,10.80
2022-11-01T00:20:36.582Z,9.90
2022-11-01T00:21:36.593Z,11.60
2022-11-01T00:22:36.594Z,10.50
2022-11-01T00:23:36.564Z,12.00
2022-11-01T00:24:36.574Z,10.10
2022-11-01T00:25:36.533Z,13.30
2022-11-01T00:26:36.573Z,8.00
2022-11-01T00:27:36.512Z,11.00
2022-11-01T00:28:36.500Z,10.00
2022-11-01T00:29:36.529Z,10.60
2022-11-01T00:30:36.477Z,9.60
2022-11-01T00:31:36.490Z,12.30
2022-11-01T00:32:36.461Z,9.10
2022-11-01T00:33:36.449Z,10.50
2022-11-01T00:34:36.461Z,11.70
2022-11-01T00:35:36.431Z,10.90
2022-11-01T00:36:36.413Z,10.20
2022-11-01T00:37:36.414Z,10.50
2022-11-01T00:38:36.411Z,9.50
2022-11-01T00:39:36.421Z,10.90
2022-11-01T00:40:36.394Z,7.00
2022-11-01T00:41:36.379Z,13.10
2022-11-01T00:42:36.351Z,9.40
2022-11-01T00:43:36.343Z,11.70
2022-11-01T00:44:36.331Z,10.10
2022-11-01T00:45:36.321Z,9.50
2022-11-01T00:46:36.352Z,7.10
2022-11-01T00:47:36.302Z,10.80
2022-11-01T00:48:36.283Z,11.40
2022-11-01T00:49:36.271Z,10.80
2022-11-01T00:50:36.272Z,8.80
2022-11-01T00:51:36.263Z,11.10
2022-11-01T00:52:36.276Z,9.90
2022-11-01T00:53:36.263Z,11.60
2022-11-01T00:54:36.222Z,10.40
2022-11-01T00:55:36.241Z,9.00
2022-11-01T00:56:36.203Z,12.30
2022-11-01T00:57:36.192Z,9.80
2022-11-01T00:58:36.173Z,9.20
2022-11-01T00:59:40.729Z,11.90
2022-11-01T01:00:37.202Z,8.90
2022-11-01T01:01:36.319Z,11.60
2022-11-01T01:02:36.192Z,11.50
2022-11-01T01:03:36.123Z,12.50
2022-11-01T01:04:36.153Z,8.70
2022-11-01T01:05:36.101Z,10.70
2022-11-01T01:06:36.125Z,10.10
2022-11-01T01:07:36.135Z,11.20
2022-11-01T01:08:36.065Z,10.50
2022-11-01T01:09:36.054Z,10.70
2022-11-01T01:10:36.050Z,8.90
2022-11-01T01:11:36.034Z,9.00
2022-11-01T01:12:36.013Z,13.10
2022-11-01T01:13:36.052Z,10.30
2022-11-01T01:14:36.006Z,11.50
2022-11-01T01:15:36.023Z,9.10
2022-11-01T01:16:36.051Z,8.80
2022-11-01T01:17:36.014Z,7.70
2022-11-01T01:18:35.953Z,10.80
2022-11-01T01:19:35.960Z,10.80
2022-11-01T01:20:35.933Z,10.20
2022-11-01T01:21:35.923Z,10.40
2022-11-01T01:22:35.912Z,11.20
2022-11-01T01:23:35.953Z,9.00
2022-11-01T01:24:35.893Z,11.50
2022-11-01T01:25:35.884Z,10.30
2022-11-01T01:26:35.877Z,11.00
2022-11-01T01:27:35.863Z,13.00
2022-11-01T01:28:40.180Z,10.30
2022-11-01T01:29:36.911Z,10.50
2022-11-01T01:30:35.824Z,11.00
2022-11-01T01:31:35.813Z,9.10
2022-11-01T01:32:35.815Z,7.50
2022-11-01T01:33:35.793Z,9.50
2022-11-01T01:34:35.784Z,10.00
2022-11-01T01:35:35.815Z,13.20
2022-11-01T01:36:35.764Z,11.20
2022-11-01T01:37:35.754Z,8.50
2022-11-01T01:38:35.771Z,10.50
2022-11-01T01:39:35.734Z,10.10
2022-11-01T01:40:35.724Z,9.70
2022-11-01T01:41:35.707Z,11.50
2022-11-01T01:42:35.694Z,10.40
2022-11-01T01:43:35.735Z,11.50
2022-11-01T01:44:35.673Z,12.70
2022-11-01T01:45:35.794Z,11.50
2022-11-01T01:46:35.662Z,10.10
2022-11-01T01:47:35.702Z,11.00
2022-11-01T01:48:35.644Z,10.00
2022-11-01T01:49:40.086Z,9.20
2022-11-01T01:50:36.629Z,10.50
2022-11-01T01:51:35.593Z,11.30
2022-11-01T01:52:35.594Z,11.30
2022-11-01T01:53:35.574Z,10.50
2022-11-01T01:54:35.624Z,14.10
2022-11-01T01:55:35.584Z,10.80
2022-11-01T01:56:35.547Z,11.00
2022-11-01T01:57:35.538Z,10.70
2022-11-01T01:58:35.532Z,9.70
2022-11-01T01:59:35.523Z,10.90
2022-11-01T02:00:35.511Z,10.80
2022-11-01T02:01:35.656Z,11.20
2022-11-01T02:02:35.485Z,9.20
2022-11-01T02:03:35.477Z,10.50
2022-11-01T02:04:35.623Z,11.50
2022-11-01T02:05:35.445Z,9.80
2022-11-01T02:06:35.478Z,10.20
2022-11-01T02:07:35.425Z,11.80
2022-11-01T02:08:35.423Z,11.90
2022-11-01T02:09:35.444Z,9.80
2022-11-01T02:10:35.408Z,13.30
2022-11-01T02:11:35.383Z,10.50
2022-11-01T02:12:35.374Z,11.70
2022-11-01T02:13:35.384Z,9.00
2022-11-01T02:14:35.345Z,10.90
2022-11-01T02:15:35.384Z,13.40
2022-11-01T02:16:35.333Z,11.10
2022-11-01T02:17:35.314Z,13.60
2022-11-01T02:18:35.305Z,9.50
2022-11-01T02:19:35.335Z,11.10
2022-11-01T02:20:35.284Z,11.30
2022-11-01T02:21:35.276Z,11.40
2022-11-01T02:22:35.396Z,9.60
2022-11-01T02:23:35.259Z,11.80
2022-11-01T02:24:35.348Z,11.80
2022-11-01T02:25:35.237Z,11.30
2022-11-01T02:26:35.225Z,11.70
2022-11-01T02:27:35.206Z,9.10
2022-11-01T02:28:35.215Z,12.20
2022-11-01T02:29:35.235Z,9.70
2022-11-01T02:30:35.219Z,12.10
2022-11-01T02:31:35.197Z,11.70
2022-11-01T02:32:35.158Z,11.70
2022-11-01T02:33:35.146Z,10.50
2022-11-01T02:34:35.135Z,10.70
2022-11-01T02:35:35.155Z,9.60
2022-11-01T02:36:35.115Z,18.10
2022-11-01T02:37:35.097Z,12.40
2022-11-01T02:38:35.106Z,11.30
2022-11-01T02:39:35.087Z,9.90
2022-11-01T02:40:36.165Z,13.50
2022-11-01T02:41:35.077Z,10.00
2022-11-01T02:42:35.056Z,9.70
2022-11-01T02:43:35.073Z,9.80
2022-11-01T02:44:35.026Z,10.00
2022-11-01T02:45:35.014Z,9.60
2022-11-01T02:46:35.053Z,8.60
2022-11-01T02:47:35.010Z,10.80
2022-11-01T02:48:36.727Z,11.60
2022-11-01T02:49:34.972Z,11.10
2022-11-01T02:50:34.971Z,11.40
2022-11-01T02:51:34.958Z,9.90
2022-11-01T02:52:34.946Z,11.10
2022-11-01T02:53:34.925Z,11.50
2022-11-01T02:54:34.957Z,9.30
2022-11-01T02:55:34.944Z,9.10
2022-11-01T02:56:34.906Z,11.10
2022-11-01T02:57:34.886Z,10.40
2022-11-01T02:58:34.877Z,10.10
2022-11-01T02:59:34.896Z,10.90
2022-11-01T03:00:34.856Z,9.60
2022-11-01T03:01:34.952Z,9.40
2022-11-01T03:02:34.905Z,10.70
2022-11-01T03:03:34.825Z,9.90
2022-11-01T03:04:34.827Z,10.70
2022-11-01T03:05:34.797Z,11.60
2022-11-01T03:06:34.797Z,10.70
2022-11-01T03:07:34.804Z,11.40
2022-11-01T03:08:34.845Z,11.10
2022-11-01T03:09:34.796Z,8.50
2022-11-01T03:10:34.755Z,11.00
2022-11-01T03:11:34.736Z,12.00
2022-11-01T03:12:34.746Z,10.90
2022-11-01T03:13:34.737Z,10.20
2022-11-01T03:14:34.708Z,12.50
2022-11-01T03:15:34.704Z,9.80
2022-11-01T03:16:34.727Z,13.90
2022-11-01T03:17:34.754Z,8.80
2022-11-01T03:18:34.665Z,10.40
2022-11-01T03:19:34.647Z,10.90
2022-11-01T03:20:34.686Z,9.20
2022-11-01T03:21:34.626Z,9.60
2022-11-01T03:22:34.616Z,9.20
2022-11-01T03:23:34.605Z,8.50
2022-11-01T03:24:34.621Z,11.60
2022-11-01T03:25:34.668Z,10.20
2022-11-01T03:26:34.579Z,9.00
2022-11-01T03:27:34.576Z,9.10
2022-11-01T03:28:34.556Z,9.00
2022-11-01T03:29:34.537Z,11.20
2022-11-01T03:30:34.539Z,9.20
2022-11-01T03:31:34.546Z,10.40
2022-11-01T03:32:34.516Z,10.00
2022-11-01T03:33:34.527Z,7.60
2022-11-01T03:34:34.493Z,10.50
2022-11-01T03:35:34.477Z,9.90
2022-11-01T03:36:34.506Z,10.50
2022-11-01T03:37:34.456Z,11.70
2022-11-01T03:38:34.457Z,9.70
2022-11-01T03:39:34.507Z,9.30
2022-11-01T03:40:34.426Z,11.60
2022-11-01T03:41:34.417Z,8.40
2022-11-01T03:42:34.427Z,10.90
2022-11-01T03:43:34.442Z,9.90
2022-11-01T03:44:34.428Z,11.30
2022-11-01T03:45:34.417Z,11.20
2022-11-01T03:46:34.376Z,12.40
2022-11-01T03:47:34.358Z,13.30
2022-11-01T03:48:34.337Z,10.00
2022-11-01T03:49:34.366Z,8.50
2022-11-01T03:50:34.329Z,9.40
2022-11-01T03:51:34.309Z,11.10
2022-11-01T03:52:34.299Z,9.20
2022-11-01T03:53:34.298Z,8.70
2022-11-01T03:54:34.414Z,11.20
2022-11-01T03:55:34.265Z,10.10
2022-11-01T03:56:34.257Z,10.00
2022-11-01T03:57:34.256Z,7.40
2022-11-01T03:58:34.238Z,8.00
2022-11-01T03:59:34.235Z,8.10
2022-11-01T04:00:34.252Z,12.30
2022-11-01T04:01:34.359Z,8.20
2022-11-01T04:02:34.198Z,9.70
2022-11-01T04:03:34.186Z,8.70
2022-11-01T04:04:34.179Z,7.20
2022-11-01T04:05:34.456Z,9.40
2022-11-01T04:06:34.148Z,8.10
2022-11-01T04:07:35.967Z,9.80
2022-11-01T04:08:34.130Z,8.90
2022-11-01T04:09:34.126Z,12.10
2022-11-01T04:10:34.137Z,10.20
2022-11-01T04:11:34.098Z,11.50
2022-11-01T04:12:34.090Z,12.50
2022-11-01T04:13:34.065Z,10.50
2022-11-01T04:14:34.058Z,10.00
2022-11-01T04:15:34.051Z,9.10
2022-11-01T04:16:36.137Z,11.70
2022-11-01T04:17:34.028Z,7.20
2022-11-01T04:18:34.075Z,9.20
2022-11-01T04:19:33.999Z,10.10
2022-11-01T04:20:38.946Z,9.40
2022-11-01T04:21:34.019Z,7.80
2022-11-01T04:22:33.999Z,10.20
2022-11-01T04:23:33.969Z,9.40
2022-11-01T04:24:33.955Z,9.60
2022-11-01T04:25:33.944Z,13.00
2022-11-01T04:26:33.978Z,10.00
2022-11-01T04:27:33.925Z,9.10
2022-11-01T04:28:33.908Z,10.70
2022-11-01T04:29:33.905Z,13.60
2022-11-01T04:30:33.894Z,11.20
2022-11-01T04:31:33.875Z,12.50
2022-11-01T04:32:33.928Z,9.30
2022-11-01T04:33:33.887Z,9.40
2022-11-01T04:34:33.847Z,10.10
2022-11-01T04:35:33.828Z,9.10
2022-11-01T04:36:33.818Z,10.10
2022-11-01T04:37:33.857Z,8.70
2022-11-01T04:38:33.807Z,9.20
2022-11-01T04:39:33.828Z,9.40
2022-11-01T04:40:33.768Z,9.50
2022-11-01T04:41:33.779Z,7.60
2022-11-01T04:42:33.807Z,11.70
2022-11-01T04:43:33.738Z,8.60
2022-11-01T04:44:33.769Z,9.10
2022-11-01T04:45:33.747Z,13.60
2022-11-01T04:46:33.716Z,10.50
2022-11-01T04:47:33.705Z,9.40
2022-11-01T04:48:33.711Z,11.30
2022-11-01T04:49:33.688Z,9.50
2022-11-01T04:50:33.683Z,8.50
2022-11-01T04:51:33.706Z,13.60
2022-11-01T04:52:33.649Z,11.20
2022-11-01T04:53:33.668Z,9.70
2022-11-01T04:54:33.726Z,12.30
2022-11-01T04:55:33.613Z,10.00
2022-11-01T04:56:33.678Z,9.80
2022-11-01T04:57:33.658Z,10.20
2022-11-01T04:58:33.590Z,10.70
2022-11-01T04:59:33.620Z,8.50
2022-11-01T05:00:33.646Z,9.40
2022-11-01T05:01:33.694Z,7.00
2022-11-01T05:02:33.547Z,7.80
2022-11-01T05:03:33.519Z,9.60
2022-11-01T05:04:33.525Z,8.20
2022-11-01T05:05:33.518Z,6.80
2022-11-01T05:06:33.500Z,8.50
2022-11-01T05:07:33.510Z,10.40
2022-11-01T05:08:33.469Z,7.50
2022-11-01T05:09:33.529Z,11.10
2022-11-01T05:10:33.458Z,10.40
2022-11-01T05:11:33.428Z,8.70
2022-11-01T05:12:33.468Z,14.80
2022-11-01T05:13:33.418Z,8.90
2022-11-01T05:14:33.408Z,9.30
2022-11-01T05:15:33.746Z,11.60
2022-11-01T05:16:33.427Z,9.50
2022-11-01T05:17:33.405Z,9.90
2022-11-01T05:18:33.360Z,10.20
2022-11-01T05:19:33.338Z,10.60
2022-11-01T05:20:33.339Z,8.40
2022-11-01T05:21:33.335Z,10.00
2022-11-01T05:22:33.322Z,11.40
2022-11-01T05:23:33.339Z,10.60
2022-11-01T05:24:33.349Z,7.10
2022-11-01T05:25:37.031Z,7.60
2022-11-01T05:26:34.278Z,10.10
2022-11-01T05:27:33.266Z,7.90
2022-11-01T05:28:33.269Z,8.10
2022-11-01T05:29:33.624Z,7.10
2022-11-01T05:30:33.236Z,7.40
2022-11-01T05:31:33.227Z,8.60
2022-11-01T05:32:33.216Z,8.10
2022-11-01T05:33:33.202Z,8.60
2022-11-01T05:34:33.222Z,6.80
2022-11-01T05:35:33.180Z,6.80
2022-11-01T05:36:33.170Z,8.40
2022-11-01T05:37:40.689Z,7.30
2022-11-01T05:38:33.146Z,7.00
2022-11-01T05:39:33.126Z,8.00
2022-11-01T05:40:34.863Z,6.50
2022-11-01T05:41:33.106Z,7.90
2022-11-01T05:42:33.104Z,8.90
2022-11-01T05:43:33.086Z,8.00
2022-11-01T05:44:33.086Z,6.40
2022-11-01T05:45:33.067Z,6.70
2022-11-01T05:46:33.086Z,12.10
2022-11-01T05:47:33.054Z,7.10
2022-11-01T05:48:33.066Z,6.90
2022-11-01T05:49:33.017Z,7.40
2022-11-01T05:50:33.018Z,7.20
2022-11-01T05:51:33.025Z,8.20
2022-11-01T05:52:40.518Z,8.00
2022-11-01T05:53:34.705Z,10.00
2022-11-01T05:54:34.693Z,6.40
2022-11-01T05:55:32.944Z,7.00
2022-11-01T05:56:32.952Z,8.60
2022-11-01T05:57:40.625Z,7.90
2022-11-01T05:58:32.904Z,7.00
2022-11-01T05:59:32.904Z,6.90
2022-11-01T06:00:32.885Z,5.60
2022-11-01T06:01:32.954Z,6.60
2022-11-01T06:02:32.959Z,9.60
2022-11-01T06:03:32.882Z,5.70
2022-11-01T06:04:32.872Z,6.60
2022-11-01T06:05:32.833Z,9.90
2022-11-01T06:06:32.813Z,7.80
2022-11-01T06:07:32.834Z,5.60
2022-11-01T06:08:32.865Z,6.10
2022-11-01T06:09:32.785Z,6.50
2022-11-01T06:10:32.781Z,6.00
2022-11-01T06:11:34.092Z,8.00
2022-11-01T06:12:32.792Z,6.00
2022-11-01T06:13:32.753Z,5.60
2022-11-01T06:14:32.775Z,6.40
2022-11-01T06:15:34.454Z,6.20
2022-11-01T06:16:32.703Z,4.50
2022-11-01T06:17:32.703Z,7.60
2022-11-01T06:18:32.694Z,6.30
2022-11-01T06:19:32.684Z,5.60
2022-11-01T06:20:32.694Z,8.30
2022-11-01T06:21:32.667Z,5.00
2022-11-01T06:22:32.642Z,5.70
2022-11-01T06:23:32.642Z,6.50
2022-11-01T06:24:32.624Z,5.40
2022-11-01T06:25:32.653Z,6.50
2022-11-01T06:26:32.643Z,7.70
2022-11-01T06:27:32.593Z,6.10
2022-11-01T06:28:32.583Z,3.70
2022-11-01T06:29:32.602Z,3.40
2022-11-01T06:30:32.590Z,2.80
2022-11-01T06:31:32.573Z,3.70
2022-11-01T06:32:32.541Z,5.40
2022-11-01T06:33:32.593Z,5.50
2022-11-01T06:34:32.513Z,3.80
2022-11-01T06:35:32.504Z,3.30
2022-11-01T06:36:32.493Z,3.20
2022-11-01T06:37:32.496Z,3.40
2022-11-01T06:38:32.473Z,6.20
2022-11-01T06:39:34.024Z,4.10
2022-11-01T06:40:32.451Z,4.80
2022-11-01T06:41:32.490Z,6.00
2022-11-01T06:42:32.423Z,4.30
2022-11-01T06:43:32.422Z,4.50
2022-11-01T06:44:32.407Z,4.00
2022-11-01T06:45:32.402Z,3.20
2022-11-01T06:46:32.393Z,3.40
2022-11-01T06:47:32.574Z,4.60
2022-11-01T06:48:32.372Z,4.70
2022-11-01T06:49:32.382Z,3.50
2022-11-01T06:50:32.346Z,4.90
2022-11-01T06:51:32.333Z,3.90
2022-11-01T06:52:32.323Z,4.70
2022-11-01T06:53:32.347Z,5.00
2022-11-01T06:54:32.294Z,7.50
2022-11-01T06:55:38.465Z,3.30
2022-11-01T06:56:32.273Z,4.60
2022-11-01T06:57:32.273Z,3.50
2022-11-01T06:58:32.263Z,5.10
2022-11-01T06:59:32.243Z,6.10
2022-11-01T07:00:32.255Z,4.70
2022-11-01T07:01:32.372Z,5.60
2022-11-01T07:02:32.308Z,4.70
2022-11-01T07:03:32.204Z,4.10
2022-11-01T07:04:32.254Z,4.90
2022-11-01T07:05:35.962Z,4.60
2022-11-01T07:06:33.164Z,5.20
2022-11-01T07:07:32.300Z,3.80
2022-11-01T07:08:32.156Z,4.20
2022-11-01T07:09:32.144Z,5.00
2022-11-01T07:10:32.153Z,3.80
2022-11-01T07:11:32.124Z,2.40
2022-11-01T07:12:34.194Z,4.70
2022-11-01T07:13:32.101Z,4.10
2022-11-01T07:14:32.114Z,6.00
2022-11-01T07:15:32.077Z,4.30
2022-11-01T07:16:32.064Z,3.60
2022-11-01T07:17:32.065Z,4.10
2022-11-01T07:18:32.034Z,3.10
2022-11-01T07:19:32.084Z,5.20
2022-11-01T07:20:32.191Z,2.80
2022-11-01T07:21:32.006Z,4.20
2022-11-01T07:22:31.994Z,5.10
2022-11-01T07:23:31.987Z,3.30
2022-11-01T07:24:31.979Z,5.10
2022-11-01T07:25:31.994Z,5.80
2022-11-01T07:26:31.944Z,2.90
2022-11-01T07:27:31.944Z,3.40
2022-11-01T07:28:31.934Z,3.90
2022-11-01T07:29:31.920Z,4.30
2022-11-01T07:30:31.905Z,4.60
2022-11-01T07:31:31.924Z,3.10
2022-11-01T07:32:33.355Z,3.70
2022-11-01T07:33:31.883Z,3.20
2022-11-01T07:34:31.865Z,5.10
2022-11-01T07:35:31.863Z,4.80
2022-11-01T07:36:31.863Z,4.60
2022-11-01T07:37:31.834Z,2.40
2022-11-01T07:38:31.814Z,4.20
2022-11-01T07:39:31.812Z,3.60
2022-11-01T07:40:31.797Z,4.20
2022-11-01T07:41:31.790Z,5.50
2022-11-01T07:42:31.907Z,5.10
2022-11-01T07:43:31.779Z,3.30
2022-11-01T07:44:31.758Z,7.40
2022-11-01T07:45:31.745Z,3.10
2022-11-01T07:46:31.734Z,2.40
2022-11-01T07:47:31.744Z,3.70
2022-11-01T07:48:33.463Z,4.50
2022-11-01T07:49:31.704Z,3.00
2022-11-01T07:50:31.684Z,4.50
2022-11-01T07:51:31.681Z,3.50
2022-11-01T07:52:31.694Z,6.50
2022-11-01T07:53:31.684Z,2.50
2022-11-01T07:54:31.644Z,6.40
2022-11-01T07:55:31.644Z,3.30
2022-11-01T07:56:31.662Z,3.80
2022-11-01T07:57:31.633Z,3.40
2022-11-01T07:58:31.624Z,3.60
2022-11-01T07:59:31.593Z,4.10
2022-11-01T08:00:31.664Z,4.00
2022-11-01T08:01:31.683Z,4.30
2022-11-01T08:02:31.651Z,4.70
2022-11-01T08:03:31.557Z,4.50
2022-11-01T08:04:31.543Z,2.10
2022-11-01T08:05:31.527Z,3.20
2022-11-01T08:06:31.515Z,3.50
2022-11-01T08:07:31.517Z,4.60
2022-11-01T08:08:31.693Z,2.90
2022-11-01T08:09:31.530Z,4.20
2022-11-01T08:10:31.474Z,4.80
2022-11-01T08:11:31.492Z,2.10
2022-11-01T08:12:31.488Z,2.90
2022-11-01T08:13:31.449Z,3.00
2022-11-01T08:14:31.425Z,5.60
2022-11-01T08:15:31.424Z,2.80
2022-11-01T08:16:31.405Z,3.80
2022-11-01T08:17:31.501Z,4.40
2022-11-01T08:18:31.385Z,3.30
2022-11-01T08:19:31.381Z,5.70
2022-11-01T08:20:31.370Z,4.70
2022-11-01T08:21:31.757Z,5.00
2022-11-01T08:22:31.373Z,4.30
2022-11-01T08:23:40.824Z,2.00
2022-11-01T08:24:31.322Z,3.70
2022-11-01T08:25:31.356Z,3.00
2022-11-01T08:26:31.304Z,5.40
2022-11-01T08:27:32.868Z,4.20
2022-11-01T08:29:41.921Z,6.80
2022-11-01T08:30:41.680Z,5.70
2022-11-01T08:31:41.630Z,4.10
2022-11-01T08:32:41.624Z,4.80
2022-11-01T08:33:42.000Z,5.00
2022-11-01T08:34:41.600Z,7.80
2022-11-01T08:35:45.842Z,5.60
2022-11-01T08:36:42.571Z,6.00
2022-11-01T08:37:41.569Z,6.10
2022-11-01T08:38:41.850Z,4.10
2022-11-01T08:39:41.598Z,3.70
2022-11-01T08:40:41.540Z,5.90
2022-11-01T08:41:41.563Z,6.00
2022-11-01T08:42:41.534Z,6.30
2022-11-01T08:43:41.760Z,4.70
2022-11-01T08:44:41.524Z,5.00
2022-11-01T08:45:41.490Z,7.20
2022-11-01T08:46:41.474Z,7.40
2022-11-01T08:47:41.462Z,5.60
2022-11-01T08:48:41.449Z,4.10
2022-11-01T08:49:41.874Z,7.30
2022-11-01T08:50:41.420Z,6.80
2022-11-01T08:51:41.421Z,5.30
2022-11-01T08:52:41.420Z,5.40
2022-11-01T08:53:41.400Z,5.20
2022-11-01T08:54:41.411Z,5.30
2022-11-01T08:55:41.552Z,6.90
2022-11-01T08:56:41.359Z,4.40
2022-11-01T08:57:41.361Z,5.90
2022-11-01T08:58:41.340Z,6.30
2022-11-01T08:59:41.369Z,6.00
2022-11-01T09:00:41.324Z,6.30
2022-11-01T09:01:41.394Z,5.50
2022-11-01T09:02:41.303Z,5.80
2022-11-01T09:03:41.289Z,7.90
2022-11-01T09:04:41.279Z,8.70
2022-11-01T09:05:41.345Z,5.10
2022-11-01T09:06:41.260Z,6.70
2022-11-01T09:07:41.270Z,5.00
2022-11-01T09:08:41.265Z,6.20
2022-11-01T09:09:41.230Z,9.20
2022-11-01T09:10:41.215Z,4.80
2022-11-01T09:11:41.210Z,6.80
2022-11-01T09:13:45.210Z,3.10
2022-11-01T09:14:41.170Z,9.20
2022-11-01T09:15:41.249Z,7.40
2022-11-01T09:16:41.149Z,7.80
2022-11-01T09:17:41.143Z,9.20
2022-11-01T09:18:41.130Z,6.20
2022-11-01T09:19:41.151Z,6.80
2022-11-01T09:20:41.101Z,5.30
2022-11-01T09:21:41.101Z,9.50
2022-11-01T09:22:41.083Z,9.30
2022-11-01T09:23:41.113Z,9.30
2022-11-01T09:24:41.069Z,9.10
2022-11-01T09:25:41.051Z,7.00
2022-11-01T09:26:41.069Z,9.30
2022-11-01T09:27:41.029Z,7.40
2022-11-01T09:28:41.017Z,9.80
2022-11-01T09:29:41.085Z,6.20
2022-11-01T09:30:49.612Z,9.60
2022-11-01T09:31:41.989Z,7.90
2022-11-01T09:32:40.969Z,5.50
2022-11-01T09:33:40.999Z,10.40
2022-11-01T09:34:40.961Z,7.60
2022-11-01T09:35:40.950Z,8.70
2022-11-01T09:36:40.932Z,10.20
2022-11-01T09:37:40.980Z,6.10
2022-11-01T09:38:40.940Z,12.10
2022-11-01T09:39:40.917Z,11.50
2022-11-01T09:40:40.900Z,11.60
2022-11-01T09:41:40.890Z,6.60
2022-11-01T09:42:40.910Z,10.80
2022-11-01T09:43:40.880Z,8.50
2022-11-01T09:44:40.851Z,8.90
2022-11-01T09:45:40.839Z,8.70
2022-11-01T09:46:40.830Z,11.20
2022-11-01T09:47:40.830Z,9.40
2022-11-01T09:48:40.958Z,12.40
2022-11-01T09:49:40.800Z,10.10
2022-11-01T09:50:40.789Z,8.70
2022-11-01T09:51:40.778Z,7.60
2022-11-01T09:52:40.760Z,9.50
2022-11-01T09:53:40.759Z,19.60
2022-11-01T09:54:40.769Z,9.20
2022-11-01T09:55:40.730Z,14.00
2022-11-01T09:56:40.719Z,9.80
2022-11-01T09:57:40.739Z,11.20
2022-11-01T09:58:42.430Z,9.30
2022-11-01T09:59:40.690Z,12.50
2022-11-01T10:00:40.750Z,11.50
2022-11-01T10:01:41.048Z,11.90
2022-11-01T10:02:40.660Z,7.10
2022-11-01T10:03:40.640Z,13.60
2022-11-01T10:04:40.640Z,14.50
2022-11-01T10:05:40.620Z,9.10
2022-11-01T10:06:40.651Z,6.60
2022-11-01T10:07:40.601Z,8.00
2022-11-01T10:08:40.590Z,10.10
2022-11-01T10:09:40.583Z,9.80
2022-11-01T10:10:40.591Z,9.10
2022-11-01T10:11:40.576Z,11.70
2022-11-01T10:12:40.569Z,9.20
2022-11-01T10:13:40.559Z,11.40
2022-11-01T10:14:40.529Z,9.50
2022-11-01T10:15:40.527Z,12.80
2022-11-01T10:16:40.511Z,8.30
2022-11-01T10:17:40.495Z,11.60
2022-11-01T10:18:40.499Z,12.10
2022-11-01T10:19:40.519Z,7.10
2022-11-01T10:20:40.461Z,12.10
2022-11-01T10:21:40.458Z,7.80
2022-11-01T10:22:40.450Z,8.60
2022-11-01T10:23:40.430Z,7.10
2022-11-01T10:24:40.418Z,8.00
2022-11-01T10:25:40.429Z,8.70
2022-11-01T10:26:40.398Z,10.40
2022-11-01T10:27:40.420Z,7.60
2022-11-01T10:28:40.379Z,8.10
2022-11-01T10:29:40.366Z,7.90
2022-11-01T10:30:40.356Z,9.80
2022-11-01T10:31:40.339Z,9.70
2022-11-01T10:32:40.348Z,9.70
2022-11-01T10:33:44.521Z,4.70
2022-11-01T10:34:40.419Z,7.40
2022-11-01T10:35:40.300Z,10.70
2022-11-01T10:36:40.327Z,6.90
2022-11-01T10:37:52.367Z,9.90
2022-11-01T10:39:16.678Z,9.50
2022-11-01T10:39:54.927Z,10.50
2022-11-01T10:40:41.274Z,7.90
2022-11-01T10:41:40.246Z,7.80
2022-11-01T10:42:40.234Z,9.80
2022-11-01T10:43:40.288Z,10.10
2022-11-01T10:44:40.210Z,9.80
2022-11-01T10:45:43.629Z,11.40
2022-11-01T10:46:41.192Z,10.90
2022-11-01T10:47:40.231Z,11.70
2022-11-01T10:48:40.173Z,10.20
2022-11-01T10:50:04.285Z,11.70
2022-11-01T10:50:41.161Z,9.60
2022-11-01T10:51:40.135Z,7.20
2022-11-01T10:52:40.138Z,10.90
2022-11-01T10:53:40.152Z,6.40
2022-11-01T10:54:40.120Z,10.60
2022-11-01T10:55:40.091Z,6.10
2022-11-01T10:56:40.080Z,7.30
2022-11-01T10:57:40.071Z,8.60
2022-11-01T10:58:40.068Z,8.30
2022-11-01T10:59:40.091Z,8.70
2022-11-01T11:00:40.515Z,7.80
2022-11-01T11:01:40.153Z,6.30
2022-11-01T11:02:40.059Z,14.50
2022-11-01T11:03:40.013Z,14.10
2022-11-01T11:04:40.001Z,11.10
2022-11-01T11:05:39.980Z,9.70
2022-11-01T11:06:46.300Z,9.50
2022-11-01T11:07:39.971Z,5.80
2022-11-01T11:08:39.953Z,10.00
2022-11-01T11:09:39.978Z,7.70
2022-11-01T11:10:39.996Z,6.30
2022-11-01T11:11:39.920Z,11.90
2022-11-01T11:12:39.911Z,9.60
2022-11-01T11:13:39.922Z,6.20
2022-11-01T11:14:39.897Z,6.90
2022-11-01T11:15:39.911Z,6.80
2022-11-01T11:16:39.921Z,7.80
2022-11-01T11:17:39.866Z,9.50
2022-11-01T11:18:39.850Z,11.00
2022-11-01T11:19:39.842Z,8.00
2022-11-01T11:20:39.944Z,8.80
2022-11-01T11:21:39.828Z,7.00
2022-11-01T11:22:39.853Z,8.40
2022-11-01T11:23:40.032Z,7.10
2022-11-01T11:24:39.781Z,10.70
2022-11-01T11:25:39.838Z,9.10
2022-11-01T11:26:39.798Z,7.70
2022-11-01T11:27:39.771Z,9.50
2022-11-01T11:28:39.748Z,8.30
2022-11-01T11:29:39.761Z,10.80
2022-11-01T11:30:39.722Z,9.30
2022-11-01T11:31:39.733Z,8.70
2022-11-01T11:32:39.700Z,7.40
2022-11-01T11:33:39.811Z,8.50
2022-11-01T11:34:39.682Z,8.30
2022-11-01T11:35:39.672Z,8.50
2022-11-01T11:36:41.827Z,8.20
2022-11-01T11:37:39.642Z,10.90
2022-11-01T11:38:39.648Z,10.40
2022-11-01T11:39:39.661Z,12.00
2022-11-01T11:40:42.612Z,9.80
2022-11-01T11:41:39.608Z,8.50
2022-11-01T11:42:39.590Z,9.10
2022-11-01T11:43:39.570Z,8.60
2022-11-01T11:44:39.571Z,12.20
2022-11-01T11:45:39.551Z,11.60
2022-11-01T11:46:39.590Z,12.40
2022-11-01T11:47:39.561Z,8.50
2022-11-01T11:48:39.530Z,8.10
2022-11-01T11:49:39.511Z,9.90
2022-11-01T11:50:39.501Z,6.80
2022-11-01T11:51:39.481Z,9.00
2022-11-01T11:53:48.989Z,7.50
2022-11-01T11:54:48.968Z,8.30
2022-11-01T11:55:49.068Z,9.30
2022-11-01T11:56:48.948Z,13.20
2022-11-01T11:57:48.938Z,9.50
2022-11-01T11:58:48.954Z,7.10
2022-11-01T11:59:49.062Z,8.10
2022-11-01T12:00:48.897Z,9.10
2022-11-01T12:01:48.957Z,7.60
2022-11-01T12:02:48.909Z,10.60
2022-11-01T12:03:48.864Z,10.70
2022-11-01T12:04:48.859Z,10.90
2022-11-01T12:05:48.958Z,8.60
2022-11-01T12:06:48.838Z,9.40
2022-11-01T12:07:48.828Z,7.40
2022-11-01T12:08:48.819Z,8.80
2022-11-01T12:09:48.799Z,11.30
2022-11-01T12:10:48.799Z,11.40
2022-11-01T12:11:48.817Z,8.30
2022-11-01T12:12:48.768Z,8.90
2022-11-01T12:13:48.759Z,5.40
2022-11-01T12:14:48.748Z,9.00
2022-11-01T12:15:48.738Z,7.60
2022-11-01T12:16:48.729Z,11.90
2022-11-01T12:17:48.779Z,9.20
2022-11-01T12:18:48.705Z,12.10
2022-11-01T12:19:48.688Z,8.90
2022-11-01T12:20:48.686Z,8.50
2022-11-01T12:21:48.666Z,12.50
2022-11-01T12:22:48.667Z,10.10
2022-11-01T12:23:48.978Z,5.50
2022-11-01T12:24:48.641Z,11.70
2022-11-01T12:25:48.631Z,6.20
2022-11-01T12:26:48.630Z,8.00
2022-11-01T12:27:48.619Z,7.40
2022-11-01T12:28:48.995Z,6.70
2022-11-01T12:29:48.579Z,9.80
2022-11-01T12:30:48.581Z,8.70
2022-11-01T12:31:48.560Z,10.10
2022-11-01T12:32:48.603Z,11.30
2022-11-01T12:33:48.568Z,10.90
2022-11-01T12:34:48.559Z,9.30
2022-11-01T12:35:48.521Z,15.90
2022-11-01T12:36:48.511Z,9.10
2022-11-01T12:37:48.520Z,6.60
2022-11-01T12:38:48.516Z,6.70
2022-11-01T12:39:48.489Z,8.70
2022-11-01T12:40:48.477Z,8.90
2022-11-01T12:41:48.462Z,10.60
2022-11-01T12:42:48.462Z,8.40
2022-11-01T12:43:48.519Z,9.50
2022-11-01T12:44:48.421Z,11.20
2022-11-01T12:45:48.410Z,7.20
2022-11-01T12:46:48.442Z,10.20
2022-11-01T12:47:48.394Z,12.10
2022-11-01T12:48:48.389Z,9.20
2022-11-01T12:49:55.137Z,9.90
2022-11-01T12:50:48.413Z,7.70
2022-11-01T12:51:48.338Z,9.60
2022-11-01T12:52:48.336Z,8.60
2022-11-01T12:53:48.323Z,7.80
2022-11-01T12:54:48.341Z,9.00
2022-11-01T12:55:48.305Z,7.60
2022-11-01T12:56:48.338Z,9.80
2022-11-01T12:57:48.297Z,10.20
2022-11-01T12:58:48.268Z,12.70
2022-11-01T12:59:48.258Z,11.30
2022-11-01T13:00:48.397Z,12.60
2022-11-01T13:01:48.336Z,10.80
2022-11-01T13:02:48.250Z,10.60
2022-11-01T13:03:48.210Z,10.80
2022-11-01T13:04:48.215Z,8.60
2022-11-01T13:05:48.191Z,10.20
2022-11-01T13:06:48.219Z,8.30
2022-11-01T13:07:48.188Z,5.90
2022-11-01T13:08:48.160Z,9.90
2022-11-01T13:09:48.140Z,8.50
2022-11-01T13:10:48.196Z,8.20
2022-11-01T13:11:48.119Z,8.50
2022-11-01T13:12:48.140Z,10.30